createdAt,value
2022-11-07T00:00:31.199Z,100124.00
2022-11-07T00:02:05.554Z,100119.20
2022-11-07T00:03:38.575Z,100126.20
2022-11-07T00:05:10.519Z,100117.40
2022-11-07T00:06:42.565Z,100127.00
2022-11-07T00:08:14.357Z,100122.00
2022-11-07T00:09:46.186Z,100122.80
2022-11-07T00:11:18.473Z,100128.20
2022-11-07T00:12:51.440Z,100128.20
2022-11-07T00:14:25.501Z,100133.20
2022-11-07T00:16:11.793Z,100132.40
2022-11-07T00:17:46.205Z,100135.00
2022-11-07T00:19:22.958Z,100137.20
2022-11-07T00:20:54.930Z,100142.40
2022-11-07T00:22:26.767Z,100136.60
2022-11-07T00:23:59.007Z,100138.40
2022-11-07T00:25:30.759Z,100138.40
2022-11-07T00:27:02.910Z,100149.80
2022-11-07T00:28:41.892Z,100151.60
2022-11-07T00:30:13.870Z,100142.60
2022-11-07T00:31:47.514Z,100150.80
2022-11-07T00:33:19.354Z,100149.20
2022-11-07T00:34:51.577Z,100147.20
2022-11-07T00:36:29.032Z,100163.80
2022-11-07T00:38:01.105Z,100169.80
2022-11-07T00:39:33.652Z,100171.00
2022-11-07T00:41:07.571Z,100168.40
2022-11-07T00:42:39.912Z,100166.80
2022-11-07T00:44:11.764Z,100174.80
2022-11-07T00:45:43.528Z,100162.80
2022-11-07T00:47:15.477Z,100164.40
2022-11-07T00:48:48.171Z,100165.00
2022-11-07T00:50:20.137Z,100166.60
2022-11-07T00:51:59.461Z,100163.60
2022-11-07T00:53:31.405Z,100161.00
2022-11-07T00:55:03.637Z,100165.40
2022-11-07T00:56:35.613Z,100163.60
2022-11-07T00:58:12.629Z,100167.00
2022-11-07T00:59:46.890Z,100169.60
2022-11-07T01:01:23.174Z,100167.60
2022-11-07T01:03:14.925Z,100173.00
2022-11-07T01:05:06.108Z,100168.20
2022-11-07T01:06:42.106Z,100172.20
2022-11-07T01:08:15.849Z,100164.60
2022-11-07T01:09:47.887Z,100169.00
2022-11-07T01:11:19.792Z,100169.80
2022-11-07T01:12:51.673Z,100168.00
2022-11-07T01:14:25.183Z,100171.80
2022-11-07T01:15:57.867Z,100171.60
2022-11-07T01:17:29.814Z,100174.80
2022-11-07T01:19:04.665Z,100178.20
2022-11-07T01:20:36.820Z,100179.60
2022-11-07T01:22:08.773Z,100183.20
2022-11-07T01:23:42.025Z,100180.00
2022-11-07T01:25:13.954Z,100175.20
2022-11-07T01:26:48.131Z,100173.20
2022-11-07T01:28:21.594Z,100178.60
2022-11-07T01:29:53.351Z,100177.00
2022-11-07T01:31:25.269Z,100177.00
2022-11-07T01:32:57.766Z,100171.40
2022-11-07T01:34:29.555Z,100177.20
2022-11-07T01:36:09.261Z,100177.60
2022-11-07T01:37:41.652Z,100174.60
2022-11-07T01:39:13.921Z,100172.40
2022-11-07T01:41:05.527Z,100172.00
2022-11-07T01:42:37.955Z,100164.60
2022-11-07T01:44:10.096Z,100165.80
2022-11-07T01:45:43.133Z,100169.40
2022-11-07T01:47:17.028Z,100171.00
2022-11-07T01:49:01.874Z,100173.40
2022-11-07T01:50:33.661Z,100177.40
2022-11-07T01:52:56.527Z,100168.60
2022-11-07T01:54:54.406Z,100168.80
2022-11-07T01:56:32.446Z,100166.80
2022-11-07T01:58:09.909Z,100163.40
2022-11-07T01:59:42.274Z,100163.40
2022-11-07T02:01:17.274Z,100162.80
2022-11-07T02:02:56.263Z,100164.00
2022-11-07T02:04:30.516Z,100159.80
2022-11-07T02:06:09.987Z,100165.20
2022-11-07T02:07:42.105Z,100164.80
2022-11-07T02:09:15.291Z,100165.60
2022-11-07T02:10:48.571Z,100162.00
2022-11-07T02:12:24.795Z,100171.00
2022-11-07T02:13:56.708Z,100172.40
2022-11-07T02:15:29.179Z,100171.00
2022-11-07T02:17:02.948Z,100173.40
2022-11-07T02:18:40.161Z,100174.00
2022-11-07T02:20:13.321Z,100172.80
2022-11-07T02:22:28.495Z,100171.20
2022-11-07T02:24:09.201Z,100176.20
2022-11-07T02:25:41.735Z,100176.80
2022-11-07T02:27:19.967Z,100174.40
2022-11-07T02:28:58.652Z,100174.20
2022-11-07T02:30:34.913Z,100177.20
2022-11-07T02:32:13.490Z,100175.20
2022-11-07T02:33:45.291Z,100177.60
2022-11-07T02:35:40.248Z,100175.00
2022-11-07T02:37:31.524Z,100179.60
2022-11-07T02:39:03.823Z,100182.20
2022-11-07T02:40:36.134Z,100176.40
2022-11-07T02:42:08.617Z,100170.40
2022-11-07T02:43:48.911Z,100174.00
2022-11-07T02:45:43.032Z,100173.80
2022-11-07T02:47:16.266Z,100169.80
2022-11-07T02:48:56.076Z,100163.00
2022-11-07T02:50:28.691Z,100165.60
2022-11-07T02:52:00.662Z,100165.80
2022-11-07T02:53:32.523Z,100164.20
2022-11-07T02:55:07.221Z,100163.60
2022-11-07T02:56:42.657Z,100171.00
2022-11-07T02:58:16.562Z,100175.40
2022-11-07T02:59:49.055Z,100167.40
2022-11-07T03:01:21.732Z,100170.20
2022-11-07T03:02:54.160Z,100175.20
2022-11-07T03:04:26.321Z,100173.60
2022-11-07T03:05:58.126Z,100173.20
2022-11-07T03:07:29.965Z,100172.00
2022-11-07T03:09:02.127Z,100167.80
2022-11-07T03:10:33.951Z,100171.80
2022-11-07T03:12:05.872Z,100179.40
2022-11-07T03:13:38.298Z,100183.20
2022-11-07T03:15:12.383Z,100175.40
2022-11-07T03:16:44.167Z,100181.40
2022-11-07T03:18:17.164Z,100182.80
2022-11-07T03:19:49.656Z,100184.20
2022-11-07T03:21:21.542Z,100179.40
2022-11-07T03:22:53.261Z,100181.00
2022-11-07T03:24:27.951Z,100180.20
2022-11-07T03:25:59.704Z,100188.20
2022-11-07T03:27:36.923Z,100188.20
2022-11-07T03:29:08.899Z,100183.40
2022-11-07T03:30:40.745Z,100193.00
2022-11-07T03:32:12.588Z,100187.00
2022-11-07T03:33:45.488Z,100187.20
2022-11-07T03:35:17.298Z,100181.80
2022-11-07T03:36:50.999Z,100188.20
2022-11-07T03:38:22.912Z,100188.20
2022-11-07T03:39:54.630Z,100188.80
2022-11-07T03:41:27.046Z,100191.20
2022-11-07T03:43:01.121Z,100185.00
2022-11-07T03:44:32.945Z,100185.60
2022-11-07T03:46:04.777Z,100186.80
2022-11-07T03:47:41.870Z,100190.00
2022-11-07T03:49:16.084Z,100186.00
2022-11-07T03:50:47.915Z,100184.40
2022-11-07T03:52:19.663Z,100187.60
2022-11-07T03:53:52.835Z,100192.80
2022-11-07T03:55:24.660Z,100191.60
2022-11-07T03:56:56.623Z,100188.60
2022-11-07T03:58:28.421Z,100193.80
2022-11-07T04:00:00.731Z,100195.20
2022-11-07T04:01:33.519Z,100201.20
2022-11-07T04:03:06.604Z,100201.00
2022-11-07T04:04:38.743Z,100209.00
2022-11-07T04:06:10.706Z,100206.80
2022-11-07T04:07:42.581Z,100201.80
2022-11-07T04:09:15.743Z,100209.40
2022-11-07T04:10:47.742Z,100205.80
2022-11-07T04:12:41.178Z,100202.40
2022-11-07T04:14:31.765Z,100201.60
2022-11-07T04:16:13.594Z,100200.00
2022-11-07T04:17:48.499Z,100202.40
2022-11-07T04:19:20.478Z,100197.80
2022-11-07T04:20:52.826Z,100199.00
2022-11-07T04:22:28.387Z,100201.00
2022-11-07T04:24:00.240Z,100197.60
2022-11-07T04:25:53.398Z,100200.00
2022-11-07T04:27:43.409Z,100199.60
2022-11-07T04:29:15.216Z,100200.00
2022-11-07T04:31:13.611Z,100200.00
2022-11-07T04:34:46.396Z,100203.00
2022-11-07T04:36:19.229Z,100197.20
2022-11-07T04:37:51.849Z,100202.00
2022-11-07T04:39:23.865Z,100197.00
2022-11-07T04:40:57.579Z,100199.20
2022-11-07T04:42:30.585Z,100199.60
2022-11-07T04:44:02.372Z,100202.20
2022-11-07T04:45:34.220Z,100206.00
2022-11-07T04:47:06.924Z,100200.00
2022-11-07T04:48:40.884Z,100198.80
2022-11-07T04:50:17.332Z,100201.20
2022-11-07T04:51:49.843Z,100200.60
2022-11-07T04:53:22.156Z,100200.60
2022-11-07T04:54:54.502Z,100195.80
2022-11-07T04:56:29.434Z,100195.80
2022-11-07T04:58:05.268Z,100199.60
2022-11-07T04:59:38.574Z,100200.20
2022-11-07T05:01:10.502Z,100196.40
2022-11-07T05:02:42.515Z,100197.80
2022-11-07T05:04:14.420Z,100201.20
2022-11-07T05:05:47.746Z,100201.20
2022-11-07T05:07:20.792Z,100197.20
2022-11-07T05:08:52.740Z,100202.80
2022-11-07T05:10:28.626Z,100198.40
2022-11-07T05:12:04.310Z,100190.60
2022-11-07T05:13:36.901Z,100197.20
2022-11-07T05:15:10.658Z,100193.60
2022-11-07T05:16:43.643Z,100194.40
2022-11-07T05:18:17.538Z,100194.20
2022-11-07T05:19:49.545Z,100196.80
2022-11-07T05:21:22.263Z,100198.20
2022-11-07T05:23:18.958Z,100198.00
2022-11-07T05:24:51.406Z,100194.80
2022-11-07T05:26:23.187Z,100194.00
2022-11-07T05:27:58.575Z,100191.80
2022-11-07T05:29:32.659Z,100194.20
2022-11-07T05:31:06.624Z,100194.60
2022-11-07T05:32:41.721Z,100200.00
2022-11-07T05:34:14.673Z,100195.40
2022-11-07T05:35:47.048Z,100205.60
2022-11-07T05:37:18.949Z,100202.60
2022-11-07T05:38:53.988Z,100201.00
2022-11-07T05:40:29.486Z,100200.00
2022-11-07T05:42:02.909Z,100201.20
2022-11-07T05:43:34.672Z,100199.20
2022-11-07T05:45:09.652Z,100197.80
2022-11-07T05:46:44.385Z,100198.40
2022-11-07T05:48:16.635Z,100201.40
2022-11-07T05:49:50.253Z,100203.60
2022-11-07T05:51:22.126Z,100208.20
2022-11-07T05:52:58.921Z,100200.40
2022-11-07T05:54:40.217Z,100206.60
2022-11-07T05:56:12.916Z,100208.20
2022-11-07T05:57:44.685Z,100206.60
2022-11-07T05:59:18.881Z,100209.00
2022-11-07T06:00:52.780Z,100215.60
2022-11-07T06:02:25.166Z,100208.20
2022-11-07T06:03:57.158Z,100211.80
2022-11-07T06:05:35.814Z,100213.60
2022-11-07T06:07:18.036Z,100218.00
2022-11-07T06:08:49.907Z,100219.00
2022-11-07T06:10:25.406Z,100225.60
2022-11-07T06:11:58.450Z,100220.00
2022-11-07T06:13:31.611Z,100218.60
2022-11-07T06:15:05.182Z,100218.00
2022-11-07T06:16:39.028Z,100218.80
2022-11-07T06:18:22.014Z,100219.00
2022-11-07T06:19:53.878Z,100224.60
2022-11-07T06:21:25.912Z,100224.00
2022-11-07T06:23:10.468Z,100221.80
2022-11-07T06:24:43.180Z,100225.40
2022-11-07T06:26:15.405Z,100224.00
2022-11-07T06:27:47.257Z,100224.00
2022-11-07T06:29:21.666Z,100227.20
2022-11-07T06:30:53.548Z,100232.20
2022-11-07T06:32:29.832Z,100224.00
2022-11-07T06:34:08.760Z,100231.00
2022-11-07T06:35:42.932Z,100234.00
2022-11-07T06:37:18.434Z,100234.20
2022-11-07T06:39:12.173Z,100230.20
2022-11-07T06:40:46.475Z,100234.40
2022-11-07T06:42:18.506Z,100233.60
2022-11-07T06:43:52.367Z,100227.80
2022-11-07T06:45:33.324Z,100229.20
2022-11-07T06:47:05.446Z,100231.40
2022-11-07T06:48:38.529Z,100230.00
2022-11-07T06:50:13.926Z,100229.40
2022-11-07T06:51:48.091Z,100229.60
2022-11-07T06:53:22.482Z,100234.00
2022-11-07T06:54:56.443Z,100231.80
2022-11-07T06:56:28.216Z,100237.40
2022-11-07T06:58:09.144Z,100241.40
2022-11-07T06:59:51.333Z,100242.20
2022-11-07T07:01:25.560Z,100239.20
2022-11-07T07:03:24.880Z,100236.60
2022-11-07T07:04:58.088Z,100237.60
2022-11-07T07:06:33.735Z,100236.00
2022-11-07T07:08:17.658Z,100238.00
2022-11-07T07:09:49.520Z,100239.00
2022-11-07T07:11:22.381Z,100239.80
2022-11-07T07:12:57.508Z,100241.80
2022-11-07T07:14:29.479Z,100240.80
2022-11-07T07:16:03.647Z,100250.80
2022-11-07T07:17:37.581Z,100242.40
2022-11-07T07:19:13.013Z,100242.20
2022-11-07T07:20:44.972Z,100249.00
2022-11-07T07:22:17.879Z,100245.00
2022-11-07T07:23:54.386Z,100247.60
2022-11-07T07:25:27.575Z,100255.80
2022-11-07T07:27:07.208Z,100254.00
2022-11-07T07:28:40.818Z,100255.40
2022-11-07T07:30:18.325Z,100253.60
2022-11-07T07:31:50.925Z,100250.80
2022-11-07T07:33:23.960Z,100256.20
2022-11-07T07:35:01.545Z,100265.20
2022-11-07T07:36:38.915Z,100266.00
2022-11-07T07:38:14.071Z,100270.80
2022-11-07T07:39:49.318Z,100266.20
2022-11-07T07:41:21.756Z,100266.80
2022-11-07T07:42:54.806Z,100270.80
2022-11-07T07:44:28.673Z,100266.40
2022-11-07T07:46:16.207Z,100268.00
2022-11-07T07:47:49.609Z,100285.20
2022-11-07T07:49:24.280Z,100272.80
2022-11-07T07:50:57.988Z,100277.20
2022-11-07T07:52:39.321Z,100277.80
2022-11-07T07:54:13.244Z,100272.00
2022-11-07T07:55:48.623Z,100275.20
2022-11-07T07:57:22.269Z,100277.40
2022-11-07T07:58:57.471Z,100282.60
2022-11-07T08:00:31.415Z,100278.00
2022-11-07T08:02:11.504Z,100281.80
2022-11-07T08:04:00.775Z,100289.00
2022-11-07T08:05:39.419Z,100286.40
2022-11-07T08:07:11.836Z,100287.80
2022-11-07T08:08:44.886Z,100290.00
2022-11-07T08:10:40.763Z,100296.60
2022-11-07T08:12:22.807Z,100297.00
2022-11-07T08:13:58.478Z,100290.60
2022-11-07T08:15:33.426Z,100291.20
2022-11-07T08:17:05.172Z,100288.60
2022-11-07T08:18:39.953Z,100293.00
2022-11-07T08:20:15.821Z,100296.60
2022-11-07T08:21:47.633Z,100299.00
2022-11-07T08:23:20.329Z,100300.60
2022-11-07T08:24:52.337Z,100304.00
2022-11-07T08:26:24.072Z,100301.00
2022-11-07T08:27:55.900Z,100308.40
2022-11-07T08:29:27.632Z,100307.20
2022-11-07T08:31:08.598Z,100308.40
2022-11-07T08:32:40.586Z,100314.40
2022-11-07T08:34:12.453Z,100309.20
2022-11-07T08:35:44.224Z,100308.80
2022-11-07T08:37:16.013Z,100310.00
2022-11-07T08:38:48.140Z,100300.20
2022-11-07T08:40:20.822Z,100311.40
2022-11-07T08:41:52.586Z,100314.40
2022-11-07T08:43:24.489Z,100311.60
2022-11-07T08:44:56.241Z,100307.40
2022-11-07T08:46:28.003Z,100302.40
2022-11-07T08:48:00.669Z,100307.60
2022-11-07T08:49:33.674Z,100311.60
2022-11-07T08:51:05.888Z,100323.80
2022-11-07T08:52:37.651Z,100319.80
2022-11-07T08:54:11.358Z,100312.60
2022-11-07T08:55:43.033Z,100313.80
2022-11-07T08:57:15.683Z,100317.20
2022-11-07T08:58:47.471Z,100313.80
2022-11-07T09:00:19.841Z,100315.60
2022-11-07T09:02:27.898Z,100319.80
2022-11-07T09:03:48.644Z,100310.40
2022-11-07T09:05:22.609Z,100319.80
2022-11-07T09:06:57.493Z,100319.20
2022-11-07T09:08:29.257Z,100317.40
2022-11-07T09:10:01.027Z,100316.60
2022-11-07T09:11:32.874Z,100319.60
2022-11-07T09:13:04.638Z,100324.60
2022-11-07T09:14:36.401Z,100322.40
2022-11-07T09:16:08.406Z,100324.60
2022-11-07T09:17:40.825Z,100326.40
2022-11-07T09:19:12.559Z,100324.60
2022-11-07T09:20:44.326Z,100332.00
2022-11-07T09:22:16.064Z,100328.60
2022-11-07T09:23:48.128Z,100330.00
2022-11-07T09:25:20.080Z,100338.40
2022-11-07T09:26:52.350Z,100336.80
2022-11-07T09:28:24.133Z,100344.60
2022-11-07T09:29:55.899Z,100344.40
2022-11-07T09:31:27.712Z,100343.20
2022-11-07T09:33:00.212Z,100342.60
2022-11-07T09:34:31.961Z,100346.80
2022-11-07T09:36:05.877Z,100351.20
2022-11-07T09:37:39.345Z,100350.40
2022-11-07T09:39:11.074Z,100352.20
2022-11-07T09:41:11.222Z,100352.40
2022-11-07T09:43:03.403Z,100358.60
2022-11-07T09:44:56.623Z,100360.60
2022-11-07T09:46:50.402Z,100370.60
2022-11-07T09:48:28.041Z,100369.20
2022-11-07T09:50:11.343Z,100372.60
2022-11-07T09:51:54.071Z,100374.20
2022-11-07T09:53:36.879Z,100372.80
2022-11-07T09:55:35.448Z,100375.40
2022-11-07T09:57:18.278Z,100378.60
2022-11-07T09:58:57.184Z,100383.60
2022-11-07T10:00:32.984Z,100386.20
2022-11-07T10:02:18.486Z,100384.40
2022-11-07T10:04:23.751Z,100384.40
2022-11-07T10:06:24.372Z,100388.60
2022-11-07T10:08:40.899Z,100389.60
2022-11-07T10:10:47.103Z,100385.00
2022-11-07T10:12:55.757Z,100388.00
2022-11-07T10:15:03.547Z,100382.60
2022-11-07T10:18:03.867Z,100388.20
2022-11-07T10:19:54.590Z,100390.40
2022-11-07T10:21:46.169Z,100394.60
2022-11-07T10:23:41.196Z,100391.80
2022-11-07T10:26:00.464Z,100399.40
2022-11-07T10:27:33.467Z,100412.00
2022-11-07T10:29:21.003Z,100407.00
2022-11-07T10:30:57.596Z,100414.60
2022-11-07T10:32:58.459Z,100416.60
2022-11-07T10:34:40.904Z,100408.00
2022-11-07T10:36:19.189Z,100414.60
2022-11-07T10:38:00.645Z,100416.40
2022-11-07T10:39:33.015Z,100424.60
2022-11-07T10:43:39.657Z,100425.80
2022-11-07T10:45:18.063Z,100423.40
2022-11-07T10:46:54.529Z,100422.60
2022-11-07T10:48:29.650Z,100414.60
2022-11-07T10:50:25.562Z,100416.60
2022-11-07T10:52:19.535Z,100417.60
2022-11-07T10:53:51.241Z,100418.00
2022-11-07T10:55:24.833Z,100416.80
2022-11-07T10:57:07.459Z,100409.40
2022-11-07T10:58:46.334Z,100415.60
2022-11-07T11:00:31.721Z,100412.40
2022-11-07T11:02:27.283Z,100415.00
2022-11-07T11:03:59.112Z,100406.00
2022-11-07T11:05:39.951Z,100405.00
2022-11-07T11:07:13.512Z,100406.40
2022-11-07T11:08:52.098Z,100410.00
2022-11-07T11:10:31.075Z,100409.80
2022-11-07T11:12:13.226Z,100412.60
2022-11-07T11:13:46.038Z,100415.60
2022-11-07T11:15:25.208Z,100412.40
2022-11-07T11:16:58.112Z,100413.00
2022-11-07T11:18:30.029Z,100408.60
2022-11-07T11:20:02.391Z,100408.00
2022-11-07T11:21:49.126Z,100411.40
2022-11-07T11:23:25.244Z,100404.40
2022-11-07T11:25:12.008Z,100404.00
2022-11-07T11:26:46.255Z,100404.20
2022-11-07T11:28:29.015Z,100401.60
2022-11-07T11:30:08.028Z,100400.40
2022-11-07T11:31:49.392Z,100402.80
2022-11-07T11:33:30.286Z,100399.20
2022-11-07T11:35:31.889Z,100402.00
2022-11-07T11:37:08.634Z,100400.80
2022-11-07T11:38:43.931Z,100396.00
2022-11-07T11:40:22.401Z,100397.00
2022-11-07T11:41:57.330Z,100394.20
2022-11-07T11:43:59.136Z,100396.80
2022-11-07T11:45:50.340Z,100392.40
2022-11-07T11:47:41.321Z,100389.00
2022-11-07T11:49:38.870Z,100391.00
2022-11-07T11:51:59.569Z,100392.00
2022-11-07T11:53:47.198Z,100390.40
2022-11-07T11:55:57.640Z,100393.20
2022-11-07T11:57:47.420Z,100398.60
2022-11-07T11:59:53.213Z,100401.40
2022-11-07T12:01:53.131Z,100398.40
2022-11-07T12:04:03.830Z,100395.20
2022-11-07T12:07:52.093Z,100392.00
2022-11-07T12:09:36.791Z,100391.60
2022-11-07T12:11:22.747Z,100388.00
2022-11-07T12:13:42.423Z,100390.00
2022-11-07T12:15:23.327Z,100388.20
2022-11-07T12:17:10.989Z,100389.20
2022-11-07T12:19:25.385Z,100390.60
2022-11-07T12:21:31.550Z,100387.40
2022-11-07T12:23:19.347Z,100387.00
2022-11-07T12:25:07.938Z,100385.40
2022-11-07T12:26:50.628Z,100387.80
2022-11-07T12:28:46.052Z,100381.80
2022-11-07T12:31:03.346Z,100384.40
2022-11-07T12:32:59.273Z,100388.00
2022-11-07T12:35:21.405Z,100389.00
2022-11-07T12:37:08.596Z,100389.60
2022-11-07T12:39:07.883Z,100384.40
2022-11-07T12:41:04.741Z,100387.60
2022-11-07T12:42:59.819Z,100386.20
2022-11-07T12:44:43.595Z,100394.40
2022-11-07T12:46:55.204Z,100385.60
2022-11-07T12:48:57.928Z,100389.40
2022-11-07T12:50:56.874Z,100387.00
2022-11-07T12:52:49.894Z,100384.00
2022-11-07T12:54:47.965Z,100385.60
2022-11-07T12:56:27.327Z,100388.00
2022-11-07T12:58:02.675Z,100383.80
2022-11-07T12:59:38.926Z,100384.80
2022-11-07T13:01:20.240Z,100377.80
2022-11-07T13:03:10.715Z,100383.00
2022-11-07T13:05:13.831Z,100388.60
2022-11-07T13:07:15.430Z,100383.60
2022-11-07T13:09:16.338Z,100384.00
2022-11-07T13:11:19.217Z,100385.40
2022-11-07T13:13:08.337Z,100391.00
2022-11-07T13:14:42.888Z,100383.20
2022-11-07T13:16:30.331Z,100386.80
2022-11-07T13:20:36.679Z,100383.20
2022-11-07T13:22:33.359Z,100384.00
2022-11-07T13:24:06.584Z,100384.20
2022-11-07T13:25:40.952Z,100382.40
2022-11-07T13:27:31.823Z,100386.40
2022-11-07T13:29:04.849Z,100380.00
2022-11-07T13:30:40.116Z,100388.60
2022-11-07T13:32:16.011Z,100380.00
2022-11-07T13:33:47.801Z,100380.60
2022-11-07T13:35:39.348Z,100385.00
2022-11-07T13:37:20.462Z,100386.60
2022-11-07T13:39:00.808Z,100386.40
2022-11-07T13:40:49.935Z,100387.20
2022-11-07T13:42:27.852Z,100388.20
2022-11-07T13:44:05.787Z,100383.40
2022-11-07T13:45:52.360Z,100380.20
2022-11-07T13:47:43.062Z,100389.00
2022-11-07T13:49:22.764Z,100382.80
2022-11-07T13:51:14.326Z,100383.40
2022-11-07T13:53:00.161Z,100383.60
2022-11-07T13:54:57.226Z,100381.00
2022-11-07T13:56:49.754Z,100386.00
2022-11-07T13:58:22.425Z,100383.20
2022-11-07T14:00:05.050Z,100383.80
2022-11-07T14:01:45.803Z,100377.00
2022-11-07T14:03:28.004Z,100389.20
2022-11-07T14:05:17.356Z,100383.00
2022-11-07T14:06:50.851Z,100382.80
2022-11-07T14:08:31.224Z,100384.20
2022-11-07T14:10:12.329Z,100384.40
2022-11-07T14:11:46.571Z,100384.00
2022-11-07T14:13:41.509Z,100385.40
2022-11-07T14:15:20.945Z,100379.40
2022-11-07T14:17:00.232Z,100377.20
2022-11-07T14:18:40.630Z,100378.60
2022-11-07T14:20:14.174Z,100382.20
2022-11-07T14:21:47.387Z,100384.80
2022-11-07T14:23:29.673Z,100387.80
2022-11-07T14:25:04.420Z,100383.80
2022-11-07T14:26:39.940Z,100381.80
2022-11-07T14:28:17.177Z,100389.40
2022-11-07T14:30:00.053Z,100388.40
2022-11-07T14:31:35.973Z,100384.80
2022-11-07T14:33:20.069Z,100389.60
2022-11-07T14:34:54.743Z,100391.20
2022-11-07T14:36:27.854Z,100393.80
2022-11-07T14:38:10.455Z,100391.20
2022-11-07T14:39:43.719Z,100390.60
2022-11-07T14:41:16.933Z,100392.60
2022-11-07T14:42:49.134Z,100388.60
2022-11-07T14:44:55.780Z,100385.40
2022-11-07T14:46:28.707Z,100384.00
2022-11-07T14:48:01.445Z,100380.40
2022-11-07T14:50:04.489Z,100386.00
2022-11-07T14:51:36.530Z,100388.40
2022-11-07T15:05:30.711Z,100379.80
2022-11-07T15:07:29.120Z,100378.00
2022-11-07T15:09:06.900Z,100381.80
2022-11-07T15:10:39.770Z,100379.60
2022-11-07T15:12:27.508Z,100380.40
2022-11-07T15:14:02.333Z,100384.00
2022-11-07T15:15:37.829Z,100381.80
2022-11-07T15:17:25.245Z,100385.20
2022-11-07T15:19:10.065Z,100383.40
2022-11-07T15:20:41.899Z,100380.80
2022-11-07T15:22:40.053Z,100380.00
2022-11-07T15:24:29.556Z,100385.00
2022-11-07T15:26:07.536Z,100379.60
2022-11-07T15:27:44.237Z,100382.20
2022-11-07T15:29:22.000Z,100377.80
2022-11-07T15:30:59.069Z,100376.60
2022-11-07T15:32:52.377Z,100380.20
2022-11-07T15:36:58.986Z,100382.80
2022-11-07T15:38:30.751Z,100384.80
2022-11-07T15:40:09.997Z,100382.20
2022-11-07T15:41:41.840Z,100379.80
2022-11-07T15:43:13.681Z,100381.60
2022-11-07T15:44:46.230Z,100382.00
2022-11-07T15:46:40.533Z,100382.00
2022-11-07T15:48:21.841Z,100384.00
2022-11-07T15:50:20.902Z,100382.40
2022-11-07T15:52:02.672Z,100386.20
2022-11-07T15:53:37.618Z,100384.80
2022-11-07T15:55:15.478Z,100390.80
2022-11-07T15:56:52.336Z,100395.20
2022-11-07T15:58:30.023Z,100398.60
2022-11-07T16:00:02.081Z,100395.60
2022-11-07T16:17:29.809Z,100411.20
2022-11-07T16:19:01.682Z,100409.00
2022-11-07T16:20:33.722Z,100415.00
2022-11-07T16:22:05.478Z,100405.40
2022-11-07T16:23:37.471Z,100410.80
2022-11-07T16:25:21.352Z,100412.40
2022-11-07T16:26:54.968Z,100414.40
2022-11-07T16:28:55.121Z,100406.20
2022-11-07T16:30:37.814Z,100410.80
2022-11-07T16:32:17.632Z,100408.40
2022-11-07T16:33:53.797Z,100414.60
2022-11-07T16:35:27.839Z,100411.60
2022-11-07T16:37:00.153Z,100413.40
2022-11-07T16:38:38.047Z,100414.40
2022-11-07T16:40:25.633Z,100408.80
2022-11-07T16:42:35.120Z,100408.00
2022-11-07T16:46:24.041Z,100406.60
2022-11-07T16:47:55.739Z,100408.60
2022-11-07T16:49:39.244Z,100413.60
2022-11-07T16:51:22.623Z,100417.00
2022-11-07T16:52:55.497Z,100416.00
2022-11-07T16:54:27.303Z,100411.00
2022-11-07T16:56:03.308Z,100414.20
2022-11-07T16:57:37.363Z,100412.60
2022-11-07T16:59:20.523Z,100412.20
2022-11-07T17:00:56.503Z,100416.00
2022-11-07T17:02:28.327Z,100414.20
2022-11-07T17:04:00.676Z,100415.40
2022-11-07T17:05:32.373Z,100421.40
2022-11-07T17:07:04.213Z,100414.40
2022-11-07T17:08:41.870Z,100417.80
2022-11-07T17:10:17.980Z,100420.80
2022-11-07T17:11:49.804Z,100420.80
2022-11-07T17:13:23.157Z,100422.20
2022-11-07T17:14:55.060Z,100423.80
2022-11-07T17:16:35.163Z,100422.00
2022-11-07T17:18:20.457Z,100420.00
2022-11-07T17:19:52.634Z,100425.20
2022-11-07T17:21:36.907Z,100420.80
2022-11-07T17:23:08.793Z,100419.60
2022-11-07T17:24:43.000Z,100419.60
2022-11-07T17:26:21.999Z,100412.80
2022-11-07T17:27:53.769Z,100417.40
2022-11-07T17:29:26.782Z,100420.20
2022-11-07T17:30:58.556Z,100423.60
2022-11-07T17:32:30.410Z,100428.00
2022-11-07T17:34:02.539Z,100422.60
2022-11-07T17:35:35.848Z,100423.60
2022-11-07T17:37:17.684Z,100426.20
2022-11-07T17:38:51.602Z,100425.40
2022-11-07T17:40:29.272Z,100422.00
2022-11-07T17:42:01.120Z,100428.60
2022-11-07T17:43:33.056Z,100426.80
2022-11-07T17:45:06.419Z,100427.80
2022-11-07T17:46:43.713Z,100431.00
2022-11-07T17:48:15.686Z,100428.20
2022-11-07T17:49:47.854Z,100431.80
2022-11-07T17:51:20.070Z,100429.20
2022-11-07T17:52:52.454Z,100432.20
2022-11-07T17:54:29.314Z,100432.80
2022-11-07T17:56:01.549Z,100435.40
2022-11-07T17:57:33.664Z,100429.60
2022-11-07T17:59:11.937Z,100438.80
2022-11-07T18:00:43.928Z,100434.00
2022-11-07T18:02:19.254Z,100439.40
2022-11-07T18:03:53.844Z,100436.20
2022-11-07T18:05:32.826Z,100438.20
2022-11-07T18:07:05.741Z,100440.60
2022-11-07T18:08:53.117Z,100439.40
2022-11-07T18:10:25.079Z,100434.80
2022-11-07T18:11:56.893Z,100437.40
2022-11-07T18:13:28.659Z,100438.60
2022-11-07T18:15:00.538Z,100437.20
2022-11-07T18:16:37.591Z,100440.60
2022-11-07T18:18:11.020Z,100434.40
2022-11-07T18:19:43.795Z,100435.80
2022-11-07T18:21:16.545Z,100431.20
2022-11-07T18:22:48.474Z,100433.60
2022-11-07T18:24:20.677Z,100428.80
2022-11-07T18:26:03.778Z,100433.20
2022-11-07T18:27:36.560Z,100435.80
2022-11-07T18:29:12.201Z,100433.00
2022-11-07T18:30:43.985Z,100428.60
2022-11-07T18:32:15.708Z,100430.60
2022-11-07T18:33:48.592Z,100433.40
2022-11-07T18:35:20.657Z,100434.20
2022-11-07T18:36:52.679Z,100435.80
2022-11-07T18:38:24.417Z,100439.00
2022-11-07T18:39:57.056Z,100440.00
2022-11-07T18:41:28.884Z,100438.20
2022-11-07T18:43:00.590Z,100441.60
2022-11-07T18:44:32.398Z,100442.40
2022-11-07T18:59:14.080Z,100434.80
2022-11-07T19:00:46.373Z,100433.20
2022-11-07T19:02:18.205Z,100434.00
2022-11-07T19:03:50.226Z,100430.60
2022-11-07T19:05:23.405Z,100430.20
2022-11-07T19:06:58.186Z,100420.20
2022-11-07T19:08:33.234Z,100425.20
2022-11-07T19:10:05.900Z,100427.80
2022-11-07T19:11:37.662Z,100432.20
2022-11-07T19:13:09.406Z,100428.00
2022-11-07T19:14:41.124Z,100433.60
2022-11-07T19:16:23.940Z,100436.00
2022-11-07T19:17:55.668Z,100436.20
2022-11-07T19:19:27.501Z,100427.40
2022-11-07T19:20:59.356Z,100422.20
2022-11-07T19:22:34.807Z,100423.40
2022-11-07T19:24:08.661Z,100426.40
2022-11-07T19:25:42.873Z,100431.20
2022-11-07T19:27:17.727Z,100426.60
2022-11-07T19:28:50.487Z,100430.20
2022-11-07T19:30:22.580Z,100427.00
2022-11-07T19:31:54.321Z,100426.00
2022-11-07T19:33:26.128Z,100428.40
2022-11-07T19:34:58.437Z,100430.60
2022-11-07T19:36:31.019Z,100430.00